Price, Canada
Current Conditions -  °F | °C
As of 4:22 PM on Monday 24 Nov 2014 (Local Time) from CYYY Reporting Station
Broken Clouds Broken Clouds  
Wind Chill: 40°   Ceiling: 5500
Heat Index: 48°   Visibility: 15mi
Dew Point: 45°   Wind: 30mph
Humidity: 87%   Direction: 160°SSE
Pressure: 29.37"   Gusts: 37mph
Location:  48.6°N, 68.13°W
Report Text: CYYY 242122Z 16026G32KT 15SM SCT030 BKN055 09/07 A2937 RMK SC4SC3 SLP947
Loading
Personal Weather Stations






























Interactive Weather Map New forecast layout! Learn more

10-Day Weather Forecast

Advertisements
Track Severe Weather on mobile